sensor_id;sensor_type;location;lat;lon;timestamp;temperature;humidity
10468;DHT22;5281;48.878;9.394;2024-03-23T00:55:34;10.00;99.90
10468;DHT22;5281;48.878;9.394;2024-03-23T00:58:01;9.90;99.90
10468;DHT22;5281;48.878;9.394;2024-03-23T01:00:26;9.90;99.90
10468;DHT22;5281;48.878;9.394;2024-03-23T01:02:53;9.90;99.90
10468;DHT22;5281;48.878;9.394;2024-03-23T01:05:19;9.80;99.90
10468;DHT22;5281;48.878;9.394;2024-03-23T01:07:46;9.90;99.90
10468;DHT22;5281;48.878;9.394;2024-03-23T01:10:11;9.90;99.90
10468;DHT22;5281;48.878;9.394;2024-03-23T01:12:39;10.00;99.90
10468;DHT22;5281;48.878;9.394;2024-03-23T01:15:05;10.00;99.90
10468;DHT22;5281;48.878;9.394;2024-03-23T01:17:32;10.10;99.90
10468;DHT22;5281;48.878;9.394;2024-03-23T01:19:58;10.20;99.90
10468;DHT22;5281;48.878;9.394;2024-03-23T01:22:24;10.30;99.90
10468;DHT22;5281;48.878;9.394;2024-03-23T01:24:50;10.50;99.90
10468;DHT22;5281;48.878;9.394;2024-03-23T01:27:17;10.70;99.90
10468;DHT22;5281;48.878;9.394;2024-03-23T01:29:44;10.90;99.90
10468;DHT22;5281;48.878;9.394;2024-03-23T01:32:10;11.10;99.90
10468;DHT22;5281;48.878;9.394;2024-03-23T01:34:36;11.20;99.90
10468;DHT22;5281;48.878;9.394;2024-03-23T01:37:03;11.30;99.90
10468;DHT22;5281;48.878;9.394;2024-03-23T01:39:29;11.40;99.90
10468;DHT22;5281;48.878;9.394;2024-03-23T01:41:55;11.50;99.90
10468;DHT22;5281;48.878;9.394;2024-03-23T01:44:21;11.60;99.90
10468;DHT22;5281;48.878;9.394;2024-03-23T01:46:49;11.80;99.90
10468;DHT22;5281;48.878;9.394;2024-03-23T01:49:15;12.00;99.90
10468;DHT22;5281;48.878;9.394;2024-03-23T01:51:42;12.10;99.90
10468;DHT22;5281;48.878;9.394;2024-03-23T01:54:09;12.30;99.90
10468;DHT22;5281;48.878;9.394;2024-03-23T01:56:36;12.50;99.90
10468;DHT22;5281;48.878;9.394;2024-03-23T01:59:02;12.60;99.90
10468;DHT22;5281;48.878;9.394;2024-03-23T02:01:29;12.80;99.90
10468;DHT22;5281;48.878;9.394;2024-03-23T02:03:57;12.90;99.90
10468;DHT22;5281;48.878;9.394;2024-03-23T02:06:24;13.10;99.90
10468;DHT22;5281;48.878;9.394;2024-03-23T02:08:50;13.20;99.90
10468;DHT22;5281;48.878;9.394;2024-03-23T02:11:17;13.30;99.90
10468;DHT22;5281;48.878;9.394;2024-03-23T02:13:43;13.30;99.90
10468;DHT22;5281;48.878;9.394;2024-03-23T02:16:09;13.40;99.90
10468;DHT22;5281;48.878;9.394;2024-03-23T02:18:35;13.40;99.90
10468;DHT22;5281;48.878;9.394;2024-03-23T02:21:04;13.40;99.90
10468;DHT22;5281;48.878;9.394;2024-03-23T02:23:31;13.40;99.90
10468;DHT22;5281;48.878;9.394;2024-03-23T02:25:58;13.40;99.90
10468;DHT22;5281;48.878;9.394;2024-03-23T02:28:23;13.50;99.90
10468;DHT22;5281;48.878;9.394;2024-03-23T02:30:50;13.60;99.90
10468;DHT22;5281;48.878;9.394;2024-03-23T02:33:17;13.70;99.90
10468;DHT22;5281;48.878;9.394;2024-03-23T02:35:43;13.70;99.90
10468;DHT22;5281;48.878;9.394;2024-03-23T02:38:10;13.70;99.90
10468;DHT22;5281;48.878;9.394;2024-03-23T02:40:37;13.70;99.90
10468;DHT22;5281;48.878;9.394;2024-03-23T02:43:04;13.60;99.90
10468;DHT22;5281;48.878;9.394;2024-03-23T02:45:30;13.60;99.90
10468;DHT22;5281;48.878;9.394;2024-03-23T02:47:57;13.60;99.90
10468;DHT22;5281;48.878;9.394;2024-03-23T02:50:23;13.50;99.90
10468;DHT22;5281;48.878;9.394;2024-03-23T02:52:49;13.50;99.90
10468;DHT22;5281;48.878;9.394;2024-03-23T02:55:15;13.50;99.90
10468;DHT22;5281;48.878;9.394;2024-03-23T02:57:43;13.40;99.90
10468;DHT22;5281;48.878;9.394;2024-03-23T03:00:10;13.40;99.90
10468;DHT22;5281;48.878;9.394;2024-03-23T03:02:38;13.40;99.90
10468;DHT22;5281;48.878;9.394;2024-03-23T03:05:04;13.40;99.90
10468;DHT22;5281;48.878;9.394;2024-03-23T03:07:31;13.30;99.90
10468;DHT22;5281;48.878;9.394;2024-03-23T03:09:57;13.30;99.90
10468;DHT22;5281;48.878;9.394;2024-03-23T03:12:24;13.40;99.90
10468;DHT22;5281;48.878;9.394;2024-03-23T03:14:52;13.40;99.90
10468;DHT22;5281;48.878;9.394;2024-03-23T03:17:17;13.40;99.90
10468;DHT22;5281;48.878;9.394;2024-03-23T03:19:44;13.40;99.90
10468;DHT22;5281;48.878;9.394;2024-03-23T03:22:10;13.40;99.90
10468;DHT22;5281;48.878;9.394;2024-03-23T03:24:37;13.30;99.90
10468;DHT22;5281;48.878;9.394;2024-03-23T03:27:03;13.30;99.90
10468;DHT22;5281;48.878;9.394;2024-03-23T03:29:30;13.30;99.90
10468;DHT22;5281;48.878;9.394;2024-03-23T03:32:02;13.20;99.90
10468;DHT22;5281;48.878;9.394;2024-03-23T03:34:29;13.20;99.90
10468;DHT22;5281;48.878;9.394;2024-03-23T03:36:55;13.10;99.90
10468;DHT22;5281;48.878;9.394;2024-03-23T03:39:22;13.10;99.90
10468;DHT22;5281;48.878;9.394;2024-03-23T03:41:48;13.00;99.90
10468;DHT22;5281;48.878;9.394;2024-03-23T03:44:14;12.90;99.90
10468;DHT22;5281;48.878;9.394;2024-03-23T03:46:40;12.80;99.90
10468;DHT22;5281;48.878;9.394;2024-03-23T03:49:08;12.70;99.90
10468;DHT22;5281;48.878;9.394;2024-03-23T03:51:34;12.60;99.90
10468;DHT22;5281;48.878;9.394;2024-03-23T03:54:01;12.50;99.90
10468;DHT22;5281;48.878;9.394;2024-03-23T03:56:26;12.40;99.90
10468;DHT22;5281;48.878;9.394;2024-03-23T03:58:53;12.30;99.90
10468;DHT22;5281;48.878;9.394;2024-03-23T04:01:19;12.20;99.90
10468;DHT22;5281;48.878;9.394;2024-03-23T04:03:46;12.20;99.90
10468;DHT22;5281;48.878;9.394;2024-03-23T04:06:18;12.10;99.90
10468;DHT22;5281;48.878;9.394;2024-03-23T04:08:45;12.00;99.90
10468;DHT22;5281;48.878;9.394;2024-03-23T04:11:11;11.90;99.90
10468;DHT22;5281;48.878;9.394;2024-03-23T04:13:37;11.90;99.90
10468;DHT22;5281;48.878;9.394;2024-03-23T04:16:04;11.70;99.90
10468;DHT22;5281;48.878;9.394;2024-03-23T04:18:30;11.70;99.90
10468;DHT22;5281;48.878;9.394;2024-03-23T04:20:57;11.50;99.90
10468;DHT22;5281;48.878;9.394;2024-03-23T04:23:24;11.50;99.90
10468;DHT22;5281;48.878;9.394;2024-03-23T04:25:50;11.50;99.90
10468;DHT22;5281;48.878;9.394;2024-03-23T04:28:18;11.60;99.90
10468;DHT22;5281;48.878;9.394;2024-03-23T04:30:44;11.80;99.90
10468;DHT22;5281;48.878;9.394;2024-03-23T04:33:11;12.00;99.90
10468;DHT22;5281;48.878;9.394;2024-03-23T04:35:36;12.10;99.90
10468;DHT22;5281;48.878;9.394;2024-03-23T04:38:03;12.20;99.90
10468;DHT22;5281;48.878;9.394;2024-03-23T04:40:31;12.20;99.90
10468;DHT22;5281;48.878;9.394;2024-03-23T04:42:58;12.00;99.90
10468;DHT22;5281;48.878;9.394;2024-03-23T04:45:26;11.70;99.90
10468;DHT22;5281;48.878;9.394;2024-03-23T04:47:53;11.70;99.90
10468;DHT22;5281;48.878;9.394;2024-03-23T04:50:20;11.70;99.90
10468;DHT22;5281;48.878;9.394;2024-03-23T04:52:46;11.80;99.90
10468;DHT22;5281;48.878;9.394;2024-03-23T04:55:13;12.00;99.90
10468;DHT22;5281;48.878;9.394;2024-03-23T04:57:41;12.10;99.90
10468;DHT22;5281;48.878;9.394;2024-03-23T05:00:08;12.10;99.90
10468;DHT22;5281;48.878;9.394;2024-03-23T05:02:43;12.30;99.90
10468;DHT22;5281;48.878;9.394;2024-03-23T05:05:09;12.40;99.90
10468;DHT22;5281;48.878;9.394;2024-03-23T05:07:36;12.40;99.90
10468;DHT22;5281;48.878;9.394;2024-03-23T05:10:02;12.50;99.90
10468;DHT22;5281;48.878;9.394;2024-03-23T05:12:29;12.60;99.90
10468;DHT22;5281;48.878;9.394;2024-03-23T05:14:56;12.50;99.90
10468;DHT22;5281;48.878;9.394;2024-03-23T05:17:23;12.60;99.90
10468;DHT22;5281;48.878;9.394;2024-03-23T05:19:48;12.60;99.90
10468;DHT22;5281;48.878;9.394;2024-03-23T05:22:15;12.60;99.90
10468;DHT22;5281;48.878;9.394;2024-03-23T05:24:41;12.60;99.90
10468;DHT22;5281;48.878;9.394;2024-03-23T05:27:07;12.60;99.90
10468;DHT22;5281;48.878;9.394;2024-03-23T05:29:33;12.60;99.90
10468;DHT22;5281;48.878;9.394;2024-03-23T05:32:01;12.50;99.90
10468;DHT22;5281;48.878;9.394;2024-03-23T05:34:27;12.50;99.90
10468;DHT22;5281;48.878;9.394;2024-03-23T05:36:54;12.50;99.90
10468;DHT22;5281;48.878;9.394;2024-03-23T05:39:20;12.50;99.90
10468;DHT22;5281;48.878;9.394;2024-03-23T05:41:47;12.60;99.90
10468;DHT22;5281;48.878;9.394;2024-03-23T05:44:13;12.60;99.90
10468;DHT22;5281;48.878;9.394;2024-03-23T05:46:40;12.50;99.90
10468;DHT22;5281;48.878;9.394;2024-03-23T05:49:07;12.30;99.90
10468;DHT22;5281;48.878;9.394;2024-03-23T05:51:34;12.20;99.90
10468;DHT22;5281;48.878;9.394;2024-03-23T05:54:00;12.20;99.90
10468;DHT22;5281;48.878;9.394;2024-03-23T05:56:27;12.20;99.90
10468;DHT22;5281;48.878;9.394;2024-03-23T05:58:52;12.20;99.90
10468;DHT22;5281;48.878;9.394;2024-03-23T06:01:19;12.20;99.90
10468;DHT22;5281;48.878;9.394;2024-03-23T06:03:46;12.10;99.90
10468;DHT22;5281;48.878;9.394;2024-03-23T06:06:14;12.10;99.90
10468;DHT22;5281;48.878;9.394;2024-03-23T06:08:40;12.00;99.90
10468;DHT22;5281;48.878;9.394;2024-03-23T06:11:06;12.00;99.90
10468;DHT22;5281;48.878;9.394;2024-03-23T06:13:32;11.90;99.90
10468;DHT22;5281;48.878;9.394;2024-03-23T06:15:59;11.90;99.90
10468;DHT22;5281;48.878;9.394;2024-03-23T06:18:25;11.90;99.90
10468;DHT22;5281;48.878;9.394;2024-03-23T06:20:52;11.90;99.90
10468;DHT22;5281;48.878;9.394;2024-03-23T06:23:19;12.00;99.90
10468;DHT22;5281;48.878;9.394;2024-03-23T06:25:46;12.10;99.90
10468;DHT22;5281;48.878;9.394;2024-03-23T06:28:12;12.10;99.90
10468;DHT22;5281;48.878;9.394;2024-03-23T06:30:38;12.10;99.90
10468;DHT22;5281;48.878;9.394;2024-03-23T06:33:04;12.10;99.90
10468;DHT22;5281;48.878;9.394;2024-03-23T06:35:31;12.10;99.90
10468;DHT22;5281;48.878;9.394;2024-03-23T06:37:57;12.10;99.90
10468;DHT22;5281;48.878;9.394;2024-03-23T06:40:25;12.10;99.90
10468;DHT22;5281;48.878;9.394;2024-03-23T06:42:51;12.30;99.90
10468;DHT22;5281;48.878;9.394;2024-03-23T06:45:18;12.30;99.90
10468;DHT22;5281;48.878;9.394;2024-03-23T06:47:48;12.40;99.90
10468;DHT22;5281;48.878;9.394;2024-03-23T06:50:15;12.30;99.90
10468;DHT22;5281;48.878;9.394;2024-03-23T06:52:41;12.30;99.90
10468;DHT22;5281;48.878;9.394;2024-03-23T06:55:07;12.30;99.90
10468;DHT22;5281;48.878;9.394;2024-03-23T06:57:35;12.10;99.90
10468;DHT22;5281;48.878;9.394;2024-03-23T07:00:02;12.00;99.90
10468;DHT22;5281;48.878;9.394;2024-03-23T07:02:28;12.10;99.90
10468;DHT22;5281;48.878;9.394;2024-03-23T07:04:54;12.20;99.90
10468;DHT22;5281;48.878;9.394;2024-03-23T07:07:21;12.20;99.90
10468;DHT22;5281;48.878;9.394;2024-03-23T07:09:48;12.10;99.90
10468;DHT22;5281;48.878;9.394;2024-03-23T07:12:14;12.10;99.90
10468;DHT22;5281;48.878;9.394;2024-03-23T07:14:42;12.00;99.90
10468;DHT22;5281;48.878;9.394;2024-03-23T07:17:07;12.00;99.90
10468;DHT22;5281;48.878;9.394;2024-03-23T07:19:34;12.20;99.90
10468;DHT22;5281;48.878;9.394;2024-03-23T07:22:00;12.40;99.90
10468;DHT22;5281;48.878;9.394;2024-03-23T07:24:26;12.40;99.90
10468;DHT22;5281;48.878;9.394;2024-03-23T07:26:52;12.30;99.90
10468;DHT22;5281;48.878;9.394;2024-03-23T07:29:19;12.20;99.90
10468;DHT22;5281;48.878;9.394;2024-03-23T07:31:46;12.10;99.90
10468;DHT22;5281;48.878;9.394;2024-03-23T07:34:13;12.10;99.90
10468;DHT22;5281;48.878;9.394;2024-03-23T07:36:39;12.30;99.90
10468;DHT22;5281;48.878;9.394;2024-03-23T07:39:05;12.40;99.90
10468;DHT22;5281;48.878;9.394;2024-03-23T07:41:31;12.50;99.90
10468;DHT22;5281;48.878;9.394;2024-03-23T07:43:58;12.60;99.90
10468;DHT22;5281;48.878;9.394;2024-03-23T07:46:23;12.60;99.90
10468;DHT22;5281;48.878;9.394;2024-03-23T07:48:52;12.50;99.90
10468;DHT22;5281;48.878;9.394;2024-03-23T07:51:20;12.60;99.90
10468;DHT22;5281;48.878;9.394;2024-03-23T07:53:46;12.50;99.90
10468;DHT22;5281;48.878;9.394;2024-03-23T07:56:14;12.40;99.90
10468;DHT22;5281;48.878;9.394;2024-03-23T07:58:42;12.40;99.90
10468;DHT22;5281;48.878;9.394;2024-03-23T08:01:08;12.50;99.90
10468;DHT22;5281;48.878;9.394;2024-03-23T08:03:35;12.60;99.90
10468;DHT22;5281;48.878;9.394;2024-03-23T08:06:09;12.50;99.90
10468;DHT22;5281;48.878;9.394;2024-03-23T08:08:36;12.50;99.90
10468;DHT22;5281;48.878;9.394;2024-03-23T08:11:02;12.40;99.90
10468;DHT22;5281;48.878;9.394;2024-03-23T08:13:29;12.50;99.90
10468;DHT22;5281;48.878;9.394;2024-03-23T08:15:56;12.30;99.90
10468;DHT22;5281;48.878;9.394;2024-03-23T08:18:23;11.90;99.90
10468;DHT22;5281;48.878;9.394;2024-03-23T08:20:55;11.60;99.90
10468;DHT22;5281;48.878;9.394;2024-03-23T08:23:24;11.30;99.90
10468;DHT22;5281;48.878;9.394;2024-03-23T08:25:50;11.10;99.90
10468;DHT22;5281;48.878;9.394;2024-03-23T08:28:16;10.80;99.90
10468;DHT22;5281;48.878;9.394;2024-03-23T08:30:43;10.60;99.90
10468;DHT22;5281;48.878;9.394;2024-03-23T08:33:09;10.50;99.90
10468;DHT22;5281;48.878;9.394;2024-03-23T08:35:35;10.40;99.90
10468;DHT22;5281;48.878;9.394;2024-03-23T08:38:01;10.30;99.90
10468;DHT22;5281;48.878;9.394;2024-03-23T08:40:29;10.30;99.90
10468;DHT22;5281;48.878;9.394;2024-03-23T08:42:55;10.30;99.90
10468;DHT22;5281;48.878;9.394;2024-03-23T08:45:21;10.40;99.90
10468;DHT22;5281;48.878;9.394;2024-03-23T08:47:47;10.70;99.90
10468;DHT22;5281;48.878;9.394;2024-03-23T08:50:14;11.10;99.90
10468;DHT22;5281;48.878;9.394;2024-03-23T08:52:39;11.80;99.90
10468;DHT22;5281;48.878;9.394;2024-03-23T08:55:07;12.20;99.90
10468;DHT22;5281;48.878;9.394;2024-03-23T08:57:34;12.40;99.90
10468;DHT22;5281;48.878;9.394;2024-03-23T09:00:01;12.50;99.90
10468;DHT22;5281;48.878;9.394;2024-03-23T09:02:26;12.50;99.90
10468;DHT22;5281;48.878;9.394;2024-03-23T09:04:53;12.70;99.90
10468;DHT22;5281;48.878;9.394;2024-03-23T09:07:19;12.80;99.90
10468;DHT22;5281;48.878;9.394;2024-03-23T09:09:45;12.80;99.90
10468;DHT22;5281;48.878;9.394;2024-03-23T09:12:11;12.80;99.90
10468;DHT22;5281;48.878;9.394;2024-03-23T09:14:39;13.00;99.90
10468;DHT22;5281;48.878;9.394;2024-03-23T09:17:05;13.00;99.90
10468;DHT22;5281;48.878;9.394;2024-03-23T09:19:32;12.90;99.90
10468;DHT22;5281;48.878;9.394;2024-03-23T09:21:57;12.80;99.90
10468;DHT22;5281;48.878;9.394;2024-03-23T09:24:24;12.70;99.90
10468;DHT22;5281;48.878;9.394;2024-03-23T09:26:51;12.70;99.90
10468;DHT22;5281;48.878;9.394;2024-03-23T09:29:18;12.80;99.90
10468;DHT22;5281;48.878;9.394;2024-03-23T09:31:46;12.70;99.90
10468;DHT22;5281;48.878;9.394;2024-03-23T09:34:12;12.70;99.90
10468;DHT22;5281;48.878;9.394;2024-03-23T09:36:38;12.80;99.90
10468;DHT22;5281;48.878;9.394;2024-03-23T09:39:06;13.10;99.90
10468;DHT22;5281;48.878;9.394;2024-03-23T09:41:32;13.20;99.90
10468;DHT22;5281;48.878;9.394;2024-03-23T09:43:58;13.20;99.90
10468;DHT22;5281;48.878;9.394;2024-03-23T09:46:24;13.40;99.90
10468;DHT22;5281;48.878;9.394;2024-03-23T09:48:52;13.70;99.90
10468;DHT22;5281;48.878;9.394;2024-03-23T09:51:19;14.00;99.90
10468;DHT22;5281;48.878;9.394;2024-03-23T09:53:45;14.00;99.90
10468;DHT22;5281;48.878;9.394;2024-03-23T09:56:11;14.00;99.90
10468;DHT22;5281;48.878;9.394;2024-03-23T09:58:37;14.10;99.90
10468;DHT22;5281;48.878;9.394;2024-03-23T10:01:03;14.20;99.90
10468;DHT22;5281;48.878;9.394;2024-03-23T10:03:30;14.50;99.90
10468;DHT22;5281;48.878;9.394;2024-03-23T10:06:04;15.00;99.90
10468;DHT22;5281;48.878;9.394;2024-03-23T10:08:30;15.30;99.90
10468;DHT22;5281;48.878;9.394;2024-03-23T10:10:56;15.50;99.90
10468;DHT22;5281;48.878;9.394;2024-03-23T10:13:24;15.50;99.90
10468;DHT22;5281;48.878;9.394;2024-03-23T10:15:55;15.30;99.90
10468;DHT22;5281;48.878;9.394;2024-03-23T10:18:23;15.00;99.90
10468;DHT22;5281;48.878;9.394;2024-03-23T10:20:51;14.80;99.90
10468;DHT22;5281;48.878;9.394;2024-03-23T10:23:20;14.40;99.90
10468;DHT22;5281;48.878;9.394;2024-03-23T10:25:46;14.20;99.90
10468;DHT22;5281;48.878;9.394;2024-03-23T10:28:12;14.50;99.90
10468;DHT22;5281;48.878;9.394;2024-03-23T10:30:39;14.60;99.90
10468;DHT22;5281;48.878;9.394;2024-03-23T10:33:08;14.70;99.90
10468;DHT22;5281;48.878;9.394;2024-03-23T10:35:36;14.60;99.90
10468;DHT22;5281;48.878;9.394;2024-03-23T10:38:04;14.50;99.90
10468;DHT22;5281;48.878;9.394;2024-03-23T10:40:34;14.40;99.90
10468;DHT22;5281;48.878;9.394;2024-03-23T10:43:00;14.30;99.90
10468;DHT22;5281;48.878;9.394;2024-03-23T10:45:27;14.10;99.90
10468;DHT22;5281;48.878;9.394;2024-03-23T10:47:53;13.90;99.90
10468;DHT22;5281;48.878;9.394;2024-03-23T10:50:19;13.80;99.90
10468;DHT22;5281;48.878;9.394;2024-03-23T10:52:46;13.70;99.90
10468;DHT22;5281;48.878;9.394;2024-03-23T10:55:15;13.40;99.90
10468;DHT22;5281;48.878;9.394;2024-03-23T10:57:48;13.40;99.90
10468;DHT22;5281;48.878;9.394;2024-03-23T11:00:17;13.20;99.90
10468;DHT22;5281;48.878;9.394;2024-03-23T11:02:43;13.00;99.90
10468;DHT22;5281;48.878;9.394;2024-03-23T11:05:29;12.90;99.90
10468;DHT22;5281;48.878;9.394;2024-03-23T11:07:55;12.60;99.90
10468;DHT22;5281;48.878;9.394;2024-03-23T11:10:26;12.20;99.90
10468;DHT22;5281;48.878;9.394;2024-03-23T11:12:53;11.80;99.90
10468;DHT22;5281;48.878;9.394;2024-03-23T11:15:20;11.40;99.90
10468;DHT22;5281;48.878;9.394;2024-03-23T11:18:04;11.00;99.90
10468;DHT22;5281;48.878;9.394;2024-03-23T11:20:32;10.50;99.90
10468;DHT22;5281;48.878;9.394;2024-03-23T11:22:58;10.30;99.90
10468;DHT22;5281;48.878;9.394;2024-03-23T11:25:26;10.20;99.90
10468;DHT22;5281;48.878;9.394;2024-03-23T11:27:54;10.30;99.90
10468;DHT22;5281;48.878;9.394;2024-03-23T11:30:23;10.40;99.90
10468;DHT22;5281;48.878;9.394;2024-03-23T11:32:50;10.70;99.90
10468;DHT22;5281;48.878;9.394;2024-03-23T11:35:30;11.20;99.90
10468;DHT22;5281;48.878;9.394;2024-03-23T11:38:09;11.80;99.90
10468;DHT22;5281;48.878;9.394;2024-03-23T11:40:37;12.40;99.90
10468;DHT22;5281;48.878;9.394;2024-03-23T11:43:06;12.70;99.90
10468;DHT22;5281;48.878;9.394;2024-03-23T11:45:37;13.10;99.90
10468;DHT22;5281;48.878;9.394;2024-03-23T11:48:07;13.40;99.90
10468;DHT22;5281;48.878;9.394;2024-03-23T11:50:36;13.90;99.90
10468;DHT22;5281;48.878;9.394;2024-03-23T11:53:09;14.30;99.90
10468;DHT22;5281;48.878;9.394;2024-03-23T11:55:41;14.40;99.90
10468;DHT22;5281;48.878;9.394;2024-03-23T11:58:08;14.60;99.90
10468;DHT22;5281;48.878;9.394;2024-03-23T12:00:35;14.70;99.90
10468;DHT22;5281;48.878;9.394;2024-03-23T12:03:01;14.70;99.90
10468;DHT22;5281;48.878;9.394;2024-03-23T12:05:28;14.60;99.90
10468;DHT22;5281;48.878;9.394;2024-03-23T12:07:54;14.40;99.90
10468;DHT22;5281;48.878;9.394;2024-03-23T12:10:21;14.10;99.90
10468;DHT22;5281;48.878;9.394;2024-03-23T12:12:59;13.90;99.90
10468;DHT22;5281;48.878;9.394;2024-03-23T12:15:27;13.70;99.90
10468;DHT22;5281;48.878;9.394;2024-03-23T12:18:06;13.50;99.90
10468;DHT22;5281;48.878;9.394;2024-03-23T12:20:33;13.40;99.90
10468;DHT22;5281;48.878;9.394;2024-03-23T12:23:05;13.30;99.90
10468;DHT22;5281;48.878;9.394;2024-03-23T12:25:32;13.10;99.90
10468;DHT22;5281;48.878;9.394;2024-03-23T12:27:58;13.10;99.90
10468;DHT22;5281;48.878;9.394;2024-03-23T12:30:27;13.10;99.90
10468;DHT22;5281;48.878;9.394;2024-03-23T12:32:52;12.90;99.90
10468;DHT22;5281;48.878;9.394;2024-03-23T12:35:19;12.70;99.90
10468;DHT22;5281;48.878;9.394;2024-03-23T12:37:45;12.70;99.90
10468;DHT22;5281;48.878;9.394;2024-03-23T12:40:11;12.70;99.90
10468;DHT22;5281;48.878;9.394;2024-03-23T12:42:37;12.80;99.90
10468;DHT22;5281;48.878;9.394;2024-03-23T12:45:04;13.00;99.90
10468;DHT22;5281;48.878;9.394;2024-03-23T12:47:32;13.30;99.90
10468;DHT22;5281;48.878;9.394;2024-03-23T12:49:58;13.50;99.90
10468;DHT22;5281;48.878;9.394;2024-03-23T12:52:24;13.50;99.90
10468;DHT22;5281;48.878;9.394;2024-03-23T12:54:54;13.30;99.90
10468;DHT22;5281;48.878;9.394;2024-03-23T12:57:21;13.10;99.90
10468;DHT22;5281;48.878;9.394;2024-03-23T12:59:48;12.90;99.90
10468;DHT22;5281;48.878;9.394;2024-03-23T13:02:17;12.80;99.90
10468;DHT22;5281;48.878;9.394;2024-03-23T13:04:46;12.90;99.90
10468;DHT22;5281;48.878;9.394;2024-03-23T13:07:12;13.00;99.90
10468;DHT22;5281;48.878;9.394;2024-03-23T13:09:39;13.20;99.90
10468;DHT22;5281;48.878;9.394;2024-03-23T13:12:05;13.30;99.90
10468;DHT22;5281;48.878;9.394;2024-03-23T13:14:32;13.40;99.90
10468;DHT22;5281;48.878;9.394;2024-03-23T13:16:58;13.50;99.90
10468;DHT22;5281;48.878;9.394;2024-03-23T13:19:25;13.60;99.90
10468;DHT22;5281;48.878;9.394;2024-03-23T13:21:53;13.70;99.90
10468;DHT22;5281;48.878;9.394;2024-03-23T13:24:22;13.80;99.90
10468;DHT22;5281;48.878;9.394;2024-03-23T13:26:49;13.80;99.90
10468;DHT22;5281;48.878;9.394;2024-03-23T13:29:17;13.70;99.90
10468;DHT22;5281;48.878;9.394;2024-03-23T13:31:42;13.50;99.90
10468;DHT22;5281;48.878;9.394;2024-03-23T13:34:09;13.50;99.90
10468;DHT22;5281;48.878;9.394;2024-03-23T13:36:35;13.70;99.90
10468;DHT22;5281;48.878;9.394;2024-03-23T13:39:03;13.80;99.90
10468;DHT22;5281;48.878;9.394;2024-03-23T13:41:37;13.90;99.90
10468;DHT22;5281;48.878;9.394;2024-03-23T13:44:04;13.90;99.90
10468;DHT22;5281;48.878;9.394;2024-03-23T13:46:30;13.80;99.90
10468;DHT22;5281;48.878;9.394;2024-03-23T13:48:56;13.60;99.90
10468;DHT22;5281;48.878;9.394;2024-03-23T13:51:23;13.60;99.90
10468;DHT22;5281;48.878;9.394;2024-03-23T13:53:52;13.50;99.90
10468;DHT22;5281;48.878;9.394;2024-03-23T13:56:19;13.60;99.90
10468;DHT22;5281;48.878;9.394;2024-03-23T13:58:46;13.70;99.90
10468;DHT22;5281;48.878;9.394;2024-03-23T14:01:13;14.00;99.90
10468;DHT22;5281;48.878;9.394;2024-03-23T14:03:40;14.20;99.10
10468;DHT22;5281;48.878;9.394;2024-03-23T14:06:06;14.30;97.50
10468;DHT22;5281;48.878;9.394;2024-03-23T14:08:34;14.10;96.90
10468;DHT22;5281;48.878;9.394;2024-03-23T14:11:02;13.90;97.10
10468;DHT22;5281;48.878;9.394;2024-03-23T14:13:30;13.20;99.90
10468;DHT22;5281;48.878;9.394;2024-03-23T14:15:56;12.60;99.90
10468;DHT22;5281;48.878;9.394;2024-03-23T14:18:23;11.80;99.90
10468;DHT22;5281;48.878;9.394;2024-03-23T14:20:49;11.20;99.90
10468;DHT22;5281;48.878;9.394;2024-03-23T14:23:15;10.70;99.90
10468;DHT22;5281;48.878;9.394;2024-03-23T14:25:41;10.30;99.90
10468;DHT22;5281;48.878;9.394;2024-03-23T14:28:08;10.00;99.90
10468;DHT22;5281;48.878;9.394;2024-03-23T14:30:40;9.70;99.90
10468;DHT22;5281;48.878;9.394;2024-03-23T14:33:07;9.40;99.90
10468;DHT22;5281;48.878;9.394;2024-03-23T14:35:33;9.10;99.90
10468;DHT22;5281;48.878;9.394;2024-03-23T14:38:00;9.00;99.90
10468;DHT22;5281;48.878;9.394;2024-03-23T14:40:25;8.80;99.90
10468;DHT22;5281;48.878;9.394;2024-03-23T14:42:53;8.70;99.90
10468;DHT22;5281;48.878;9.394;2024-03-23T14:45:19;8.70;99.90
10468;DHT22;5281;48.878;9.394;2024-03-23T14:47:47;8.80;99.90
10468;DHT22;5281;48.878;9.394;2024-03-23T14:50:12;9.00;99.90
10468;DHT22;5281;48.878;9.394;2024-03-23T14:52:41;9.50;99.90
10468;DHT22;5281;48.878;9.394;2024-03-23T14:55:07;10.20;99.90
10468;DHT22;5281;48.878;9.394;2024-03-23T14:57:35;10.90;99.90
10468;DHT22;5281;48.878;9.394;2024-03-23T15:00:01;11.30;99.90
10468;DHT22;5281;48.878;9.394;2024-03-23T15:02:30;11.40;99.90
10468;DHT22;5281;48.878;9.394;2024-03-23T15:04:58;11.50;99.90
10468;DHT22;5281;48.878;9.394;2024-03-23T15:07:25;11.50;99.90
10468;DHT22;5281;48.878;9.394;2024-03-23T15:09:51;11.50;99.90
10468;DHT22;5281;48.878;9.394;2024-03-23T15:12:19;11.50;99.90
10468;DHT22;5281;48.878;9.394;2024-03-23T15:14:44;11.40;99.90
10468;DHT22;5281;48.878;9.394;2024-03-23T15:17:11;11.40;99.90
10468;DHT22;5281;48.878;9.394;2024-03-23T15:19:37;11.30;99.90
10468;DHT22;5281;48.878;9.394;2024-03-23T15:22:05;11.30;99.90
10468;DHT22;5281;48.878;9.394;2024-03-23T15:24:31;11.40;99.90
10468;DHT22;5281;48.878;9.394;2024-03-23T15:26:59;11.60;99.90
10468;DHT22;5281;48.878;9.394;2024-03-23T15:29:25;11.70;99.90
10468;DHT22;5281;48.878;9.394;2024-03-23T15:31:51;11.80;99.90
10468;DHT22;5281;48.878;9.394;2024-03-23T15:34:18;11.80;99.90
10468;DHT22;5281;48.878;9.394;2024-03-23T15:36:47;11.80;99.90
10468;DHT22;5281;48.878;9.394;2024-03-23T15:39:14;11.90;99.90
10468;DHT22;5281;48.878;9.394;2024-03-23T15:41:41;12.10;99.90
10468;DHT22;5281;48.878;9.394;2024-03-23T15:44:08;12.20;99.90
10468;DHT22;5281;48.878;9.394;2024-03-23T15:46:35;12.30;99.90
10468;DHT22;5281;48.878;9.394;2024-03-23T15:49:01;12.20;99.90
10468;DHT22;5281;48.878;9.394;2024-03-23T15:51:28;12.20;99.90
10468;DHT22;5281;48.878;9.394;2024-03-23T15:53:58;12.00;99.90
10468;DHT22;5281;48.878;9.394;2024-03-23T15:56:26;11.70;99.90
10468;DHT22;5281;48.878;9.394;2024-03-23T15:58:52;11.50;99.90
10468;DHT22;5281;48.878;9.394;2024-03-23T16:01:18;11.20;99.90
10468;DHT22;5281;48.878;9.394;2024-03-23T16:03:44;11.00;99.90
10468;DHT22;5281;48.878;9.394;2024-03-23T16:06:11;10.80;99.90
10468;DHT22;5281;48.878;9.394;2024-03-23T16:08:37;10.80;99.90
10468;DHT22;5281;48.878;9.394;2024-03-23T16:11:04;10.70;99.90
10468;DHT22;5281;48.878;9.394;2024-03-23T16:13:32;10.70;99.90
10468;DHT22;5281;48.878;9.394;2024-03-23T16:16:00;10.80;99.90
10468;DHT22;5281;48.878;9.394;2024-03-23T16:18:27;11.00;99.90
10468;DHT22;5281;48.878;9.394;2024-03-23T16:20:54;11.20;99.90
10468;DHT22;5281;48.878;9.394;2024-03-23T16:23:20;11.30;99.90
10468;DHT22;5281;48.878;9.394;2024-03-23T16:25:48;11.40;99.90
10468;DHT22;5281;48.878;9.394;2024-03-23T16:28:23;11.30;99.90
10468;DHT22;5281;48.878;9.394;2024-03-23T16:30:55;11.10;99.90
10468;DHT22;5281;48.878;9.394;2024-03-23T16:33:21;11.00;99.90
10468;DHT22;5281;48.878;9.394;2024-03-23T16:35:55;10.80;99.90
10468;DHT22;5281;48.878;9.394;2024-03-23T16:38:21;10.60;99.90
10468;DHT22;5281;48.878;9.394;2024-03-23T16:40:53;10.40;99.90